sensor_id;sensor_type;location;lat;lon;timestamp;P1;durP1;ratioP1;P2;durP2;ratioP2
56321;SDS011;42227;6.376;-10.782;2022-11-09T00:00:47;18.27;;;10.63;;
56321;SDS011;42227;6.376;-10.782;2022-11-09T00:03:16;22.02;;;13.43;;
56321;SDS011;42227;6.376;-10.782;2022-11-09T00:05:54;21.90;;;12.77;;
56321;SDS011;42227;6.376;-10.782;2022-11-09T00:08:24;22.73;;;13.40;;
56321;SDS011;42227;6.376;-10.782;2022-11-09T00:10:52;20.58;;;13.48;;
56321;SDS011;42227;6.376;-10.782;2022-11-09T00:13:21;20.80;;;11.60;;
56321;SDS011;42227;6.376;-10.782;2022-11-09T00:15:49;24.85;;;12.63;;
56321;SDS011;42227;6.376;-10.782;2022-11-09T00:18:17;27.70;;;12.20;;
56321;SDS011;42227;6.376;-10.782;2022-11-09T00:20:45;18.48;;;12.90;;
56321;SDS011;42227;6.376;-10.782;2022-11-09T00:23:14;19.20;;;12.18;;
56321;SDS011;42227;6.376;-10.782;2022-11-09T00:25:43;23.02;;;15.02;;
56321;SDS011;42227;6.376;-10.782;2022-11-09T00:28:12;17.75;;;13.00;;
56321;SDS011;42227;6.376;-10.782;2022-11-09T00:30:40;31.25;;;15.98;;
56321;SDS011;42227;6.376;-10.782;2022-11-09T00:33:09;18.42;;;14.48;;
56321;SDS011;42227;6.376;-10.782;2022-11-09T00:38:09;23.92;;;14.43;;
56321;SDS011;42227;6.376;-10.782;2022-11-09T00:40:38;31.27;;;15.20;;
56321;SDS011;42227;6.376;-10.782;2022-11-09T00:43:06;22.95;;;13.93;;
56321;SDS011;42227;6.376;-10.782;2022-11-09T00:45:34;22.05;;;13.30;;
56321;SDS011;42227;6.376;-10.782;2022-11-09T00:48:02;18.95;;;12.48;;
56321;SDS011;42227;6.376;-10.782;2022-11-09T00:50:31;27.23;;;12.98;;
56321;SDS011;42227;6.376;-10.782;2022-11-09T00:53:00;19.27;;;11.75;;
56321;SDS011;42227;6.376;-10.782;2022-11-09T00:55:28;31.13;;;13.55;;
56321;SDS011;42227;6.376;-10.782;2022-11-09T00:57:57;26.08;;;12.60;;
56321;SDS011;42227;6.376;-10.782;2022-11-09T01:00:27;22.73;;;13.55;;
56321;SDS011;42227;6.376;-10.782;2022-11-09T01:02:55;19.40;;;12.65;;
56321;SDS011;42227;6.376;-10.782;2022-11-09T01:05:24;24.77;;;12.98;;
56321;SDS011;42227;6.376;-10.782;2022-11-09T01:07:52;21.63;;;14.30;;
56321;SDS011;42227;6.376;-10.782;2022-11-09T01:10:21;27.70;;;13.13;;
56321;SDS011;42227;6.376;-10.782;2022-11-09T01:12:52;19.55;;;13.23;;
56321;SDS011;42227;6.376;-10.782;2022-11-09T01:15:20;33.20;;;17.13;;
56321;SDS011;42227;6.376;-10.782;2022-11-09T01:17:49;24.65;;;15.20;;
56321;SDS011;42227;6.376;-10.782;2022-11-09T01:20:17;20.90;;;14.90;;
56321;SDS011;42227;6.376;-10.782;2022-11-09T01:22:45;24.65;;;14.52;;
56321;SDS011;42227;6.376;-10.782;2022-11-09T01:25:13;26.85;;;14.10;;
56321;SDS011;42227;6.376;-10.782;2022-11-09T01:27:41;23.08;;;14.93;;
56321;SDS011;42227;6.376;-10.782;2022-11-09T01:30:10;23.73;;;14.13;;
56321;SDS011;42227;6.376;-10.782;2022-11-09T01:32:39;22.13;;;13.70;;
56321;SDS011;42227;6.376;-10.782;2022-11-09T01:35:07;22.23;;;15.15;;
56321;SDS011;42227;6.376;-10.782;2022-11-09T01:37:35;27.27;;;15.70;;
56321;SDS011;42227;6.376;-10.782;2022-11-09T01:40:03;19.98;;;15.18;;
56321;SDS011;42227;6.376;-10.782;2022-11-09T01:42:34;28.70;;;14.90;;
56321;SDS011;42227;6.376;-10.782;2022-11-09T01:45:14;25.95;;;15.15;;
56321;SDS011;42227;6.376;-10.782;2022-11-09T01:47:59;23.75;;;14.80;;
56321;SDS011;42227;6.376;-10.782;2022-11-09T01:50:37;25.70;;;14.43;;
56321;SDS011;42227;6.376;-10.782;2022-11-09T01:53:16;20.20;;;14.23;;
56321;SDS011;42227;6.376;-10.782;2022-11-09T01:55:56;22.65;;;14.73;;
56321;SDS011;42227;6.376;-10.782;2022-11-09T01:58:29;23.85;;;15.57;;
56321;SDS011;42227;6.376;-10.782;2022-11-09T02:01:02;28.67;;;16.63;;
56321;SDS011;42227;6.376;-10.782;2022-11-09T02:03:33;20.10;;;13.93;;
56321;SDS011;42227;6.376;-10.782;2022-11-09T02:06:09;30.42;;;14.70;;
56321;SDS011;42227;6.376;-10.782;2022-11-09T02:08:41;23.17;;;17.45;;
56321;SDS011;42227;6.376;-10.782;2022-11-09T02:11:12;33.40;;;15.38;;
56321;SDS011;42227;6.376;-10.782;2022-11-09T02:13:46;27.23;;;15.40;;
56321;SDS011;42227;6.376;-10.782;2022-11-09T02:16:18;24.13;;;15.45;;
56321;SDS011;42227;6.376;-10.782;2022-11-09T02:18:51;20.63;;;13.65;;
56321;SDS011;42227;6.376;-10.782;2022-11-09T02:21:24;17.88;;;14.07;;
56321;SDS011;42227;6.376;-10.782;2022-11-09T02:23:54;26.55;;;15.93;;
56321;SDS011;42227;6.376;-10.782;2022-11-09T02:26:26;20.42;;;15.20;;
56321;SDS011;42227;6.376;-10.782;2022-11-09T02:29:02;29.38;;;12.95;;
56321;SDS011;42227;6.376;-10.782;2022-11-09T02:31:34;28.38;;;14.55;;
56321;SDS011;42227;6.376;-10.782;2022-11-09T02:36:35;27.20;;;14.43;;
56321;SDS011;42227;6.376;-10.782;2022-11-09T02:39:07;30.58;;;14.82;;
56321;SDS011;42227;6.376;-10.782;2022-11-09T02:41:40;28.02;;;15.85;;
56321;SDS011;42227;6.376;-10.782;2022-11-09T02:44:16;22.77;;;15.57;;
56321;SDS011;42227;6.376;-10.782;2022-11-09T02:46:45;21.90;;;15.60;;
56321;SDS011;42227;6.376;-10.782;2022-11-09T02:49:14;24.92;;;16.00;;
56321;SDS011;42227;6.376;-10.782;2022-11-09T02:51:42;36.95;;;14.85;;
56321;SDS011;42227;6.376;-10.782;2022-11-09T02:54:10;39.42;;;15.45;;
56321;SDS011;42227;6.376;-10.782;2022-11-09T02:56:39;36.03;;;16.67;;
56321;SDS011;42227;6.376;-10.782;2022-11-09T02:59:08;32.75;;;15.23;;
56321;SDS011;42227;6.376;-10.782;2022-11-09T03:01:37;32.50;;;17.20;;
56321;SDS011;42227;6.376;-10.782;2022-11-09T03:04:06;20.35;;;14.15;;
56321;SDS011;42227;6.376;-10.782;2022-11-09T03:06:35;38.67;;;17.63;;
56321;SDS011;42227;6.376;-10.782;2022-11-09T03:09:11;30.35;;;17.65;;
56321;SDS011;42227;6.376;-10.782;2022-11-09T03:11:40;32.63;;;16.98;;
56321;SDS011;42227;6.376;-10.782;2022-11-09T03:14:12;33.25;;;17.55;;
56321;SDS011;42227;6.376;-10.782;2022-11-09T03:16:46;36.63;;;18.98;;
56321;SDS011;42227;6.376;-10.782;2022-11-09T03:19:17;34.15;;;20.27;;
56321;SDS011;42227;6.376;-10.782;2022-11-09T03:21:49;35.20;;;19.80;;
56321;SDS011;42227;6.376;-10.782;2022-11-09T03:24:21;31.35;;;18.60;;
56321;SDS011;42227;6.376;-10.782;2022-11-09T03:26:52;27.95;;;17.60;;
56321;SDS011;42227;6.376;-10.782;2022-11-09T03:29:21;27.50;;;18.13;;
56321;SDS011;42227;6.376;-10.782;2022-11-09T03:31:49;27.55;;;16.00;;
56321;SDS011;42227;6.376;-10.782;2022-11-09T03:34:17;32.60;;;17.75;;
56321;SDS011;42227;6.376;-10.782;2022-11-09T03:36:45;27.48;;;16.02;;
56321;SDS011;42227;6.376;-10.782;2022-11-09T03:39:14;33.75;;;16.38;;
56321;SDS011;42227;6.376;-10.782;2022-11-09T03:41:43;30.27;;;15.77;;
56321;SDS011;42227;6.376;-10.782;2022-11-09T03:44:11;29.33;;;15.85;;
56321;SDS011;42227;6.376;-10.782;2022-11-09T03:46:39;35.30;;;16.77;;
56321;SDS011;42227;6.376;-10.782;2022-11-09T03:49:07;23.17;;;16.48;;
56321;SDS011;42227;6.376;-10.782;2022-11-09T03:51:35;22.38;;;15.80;;
56321;SDS011;42227;6.376;-10.782;2022-11-09T03:54:04;24.15;;;15.75;;
56321;SDS011;42227;6.376;-10.782;2022-11-09T03:56:32;24.92;;;15.88;;
56321;SDS011;42227;6.376;-10.782;2022-11-09T03:59:00;21.58;;;16.55;;
56321;SDS011;42227;6.376;-10.782;2022-11-09T04:01:29;25.15;;;16.20;;
56321;SDS011;42227;6.376;-10.782;2022-11-09T04:03:57;21.58;;;14.65;;
56321;SDS011;42227;6.376;-10.782;2022-11-09T04:06:25;24.17;;;16.08;;
56321;SDS011;42227;6.376;-10.782;2022-11-09T04:08:53;27.65;;;14.93;;
56321;SDS011;42227;6.376;-10.782;2022-11-09T04:11:22;23.73;;;16.05;;
56321;SDS011;42227;6.376;-10.782;2022-11-09T04:13:50;37.67;;;16.70;;
56321;SDS011;42227;6.376;-10.782;2022-11-09T04:16:18;26.13;;;14.52;;
56321;SDS011;42227;6.376;-10.782;2022-11-09T04:18:47;28.33;;;15.75;;
56321;SDS011;42227;6.376;-10.782;2022-11-09T04:21:15;18.20;;;13.98;;
56321;SDS011;42227;6.376;-10.782;2022-11-09T04:23:49;23.88;;;15.48;;
56321;SDS011;42227;6.376;-10.782;2022-11-09T04:26:17;30.95;;;16.98;;
56321;SDS011;42227;6.376;-10.782;2022-11-09T04:28:46;36.17;;;15.82;;
56321;SDS011;42227;6.376;-10.782;2022-11-09T04:31:14;25.95;;;15.90;;
56321;SDS011;42227;6.376;-10.782;2022-11-09T04:33:42;25.05;;;17.33;;
56321;SDS011;42227;6.376;-10.782;2022-11-09T04:36:10;30.77;;;17.00;;
56321;SDS011;42227;6.376;-10.782;2022-11-09T04:38:38;26.52;;;14.88;;
56321;SDS011;42227;6.376;-10.782;2022-11-09T04:41:07;21.88;;;15.38;;
56321;SDS011;42227;6.376;-10.782;2022-11-09T04:43:35;27.75;;;16.13;;
56321;SDS011;42227;6.376;-10.782;2022-11-09T04:46:03;31.20;;;15.45;;
56321;SDS011;42227;6.376;-10.782;2022-11-09T04:48:33;26.08;;;16.00;;
56321;SDS011;42227;6.376;-10.782;2022-11-09T04:51:03;34.00;;;16.92;;
56321;SDS011;42227;6.376;-10.782;2022-11-09T04:53:33;32.72;;;15.25;;
56321;SDS011;42227;6.376;-10.782;2022-11-09T04:56:02;22.40;;;14.15;;
56321;SDS011;42227;6.376;-10.782;2022-11-09T04:58:32;20.60;;;14.73;;
56321;SDS011;42227;6.376;-10.782;2022-11-09T05:06:01;33.22;;;16.45;;
56321;SDS011;42227;6.376;-10.782;2022-11-09T05:08:29;22.88;;;13.45;;
56321;SDS011;42227;6.376;-10.782;2022-11-09T05:10:57;22.95;;;13.68;;
56321;SDS011;42227;6.376;-10.782;2022-11-09T05:13:25;30.45;;;15.07;;
56321;SDS011;42227;6.376;-10.782;2022-11-09T05:15:54;25.08;;;17.33;;
56321;SDS011;42227;6.376;-10.782;2022-11-09T05:18:22;25.15;;;16.40;;
56321;SDS011;42227;6.376;-10.782;2022-11-09T05:20:50;35.58;;;19.60;;
56321;SDS011;42227;6.376;-10.782;2022-11-09T05:23:18;39.60;;;17.65;;
56321;SDS011;42227;6.376;-10.782;2022-11-09T05:25:47;48.15;;;18.98;;
56321;SDS011;42227;6.376;-10.782;2022-11-09T05:28:15;31.45;;;18.35;;
56321;SDS011;42227;6.376;-10.782;2022-11-09T05:30:43;28.83;;;18.23;;
56321;SDS011;42227;6.376;-10.782;2022-11-09T05:33:11;27.17;;;15.55;;
56321;SDS011;42227;6.376;-10.782;2022-11-09T05:35:40;32.05;;;19.52;;
56321;SDS011;42227;6.376;-10.782;2022-11-09T05:38:08;25.10;;;17.63;;
56321;SDS011;42227;6.376;-10.782;2022-11-09T05:40:36;35.58;;;15.95;;
56321;SDS011;42227;6.376;-10.782;2022-11-09T05:43:04;24.42;;;16.65;;
56321;SDS011;42227;6.376;-10.782;2022-11-09T05:45:32;28.92;;;19.92;;
56321;SDS011;42227;6.376;-10.782;2022-11-09T05:48:09;41.88;;;18.10;;
56321;SDS011;42227;6.376;-10.782;2022-11-09T05:50:43;32.20;;;20.20;;
56321;SDS011;42227;6.376;-10.782;2022-11-09T05:53:16;34.58;;;19.10;;
56321;SDS011;42227;6.376;-10.782;2022-11-09T05:55:45;29.63;;;17.77;;
56321;SDS011;42227;6.376;-10.782;2022-11-09T05:58:13;35.30;;;17.95;;
56321;SDS011;42227;6.376;-10.782;2022-11-09T06:00:41;34.05;;;17.20;;
56321;SDS011;42227;6.376;-10.782;2022-11-09T06:03:10;30.98;;;17.88;;
56321;SDS011;42227;6.376;-10.782;2022-11-09T06:13:57;31.38;;;18.15;;
56321;SDS011;42227;6.376;-10.782;2022-11-09T06:16:25;27.33;;;16.92;;
56321;SDS011;42227;6.376;-10.782;2022-11-09T06:18:54;37.05;;;17.35;;
56321;SDS011;42227;6.376;-10.782;2022-11-09T06:21:22;22.20;;;16.55;;
56321;SDS011;42227;6.376;-10.782;2022-11-09T06:23:50;36.60;;;18.17;;
56321;SDS011;42227;6.376;-10.782;2022-11-09T06:29:12;29.88;;;19.42;;
56321;SDS011;42227;6.376;-10.782;2022-11-09T06:31:40;29.58;;;19.50;;
56321;SDS011;42227;6.376;-10.782;2022-11-09T06:34:08;31.65;;;18.75;;
56321;SDS011;42227;6.376;-10.782;2022-11-09T06:36:37;30.25;;;19.90;;
56321;SDS011;42227;6.376;-10.782;2022-11-09T06:39:05;23.23;;;17.35;;
56321;SDS011;42227;6.376;-10.782;2022-11-09T06:41:33;40.08;;;20.77;;
56321;SDS011;42227;6.376;-10.782;2022-11-09T06:44:01;34.13;;;19.42;;
56321;SDS011;42227;6.376;-10.782;2022-11-09T06:46:30;34.00;;;21.33;;
56321;SDS011;42227;6.376;-10.782;2022-11-09T06:48:59;31.33;;;19.75;;
56321;SDS011;42227;6.376;-10.782;2022-11-09T06:51:27;27.25;;;18.55;;
56321;SDS011;42227;6.376;-10.782;2022-11-09T06:53:55;24.58;;;18.77;;
56321;SDS011;42227;6.376;-10.782;2022-11-09T06:56:23;48.92;;;20.80;;
56321;SDS011;42227;6.376;-10.782;2022-11-09T06:58:52;45.22;;;22.08;;
56321;SDS011;42227;6.376;-10.782;2022-11-09T07:01:21;32.97;;;21.35;;
56321;SDS011;42227;6.376;-10.782;2022-11-09T07:03:53;34.25;;;22.13;;
56321;SDS011;42227;6.376;-10.782;2022-11-09T07:06:21;27.92;;;18.92;;
56321;SDS011;42227;6.376;-10.782;2022-11-09T07:08:53;31.98;;;22.25;;
56321;SDS011;42227;6.376;-10.782;2022-11-09T07:11:22;35.95;;;22.33;;
56321;SDS011;42227;6.376;-10.782;2022-11-09T07:13:50;27.10;;;18.13;;
56321;SDS011;42227;6.376;-10.782;2022-11-09T07:16:23;34.85;;;20.45;;
56321;SDS011;42227;6.376;-10.782;2022-11-09T07:18:51;35.08;;;19.60;;
56321;SDS011;42227;6.376;-10.782;2022-11-09T07:21:19;30.25;;;18.80;;
56321;SDS011;42227;6.376;-10.782;2022-11-09T07:23:48;24.58;;;16.52;;
56321;SDS011;42227;6.376;-10.782;2022-11-09T07:26:16;32.85;;;17.88;;
56321;SDS011;42227;6.376;-10.782;2022-11-09T07:28:44;29.92;;;19.33;;
56321;SDS011;42227;6.376;-10.782;2022-11-09T07:31:12;24.70;;;19.05;;
56321;SDS011;42227;6.376;-10.782;2022-11-09T07:33:41;32.03;;;18.52;;
56321;SDS011;42227;6.376;-10.782;2022-11-09T07:36:09;26.65;;;15.90;;
56321;SDS011;42227;6.376;-10.782;2022-11-09T07:38:42;32.42;;;15.82;;
56321;SDS011;42227;6.376;-10.782;2022-11-09T07:41:10;24.98;;;16.13;;
56321;SDS011;42227;6.376;-10.782;2022-11-09T07:43:39;17.95;;;14.93;;
56321;SDS011;42227;6.376;-10.782;2022-11-09T07:46:07;29.73;;;14.90;;
56321;SDS011;42227;6.376;-10.782;2022-11-09T07:48:35;24.65;;;14.68;;
56321;SDS011;42227;6.376;-10.782;2022-11-09T07:51:03;14.95;;;12.65;;
56321;SDS011;42227;6.376;-10.782;2022-11-09T07:53:31;22.45;;;12.60;;
56321;SDS011;42227;6.376;-10.782;2022-11-09T07:56:00;16.83;;;12.95;;
56321;SDS011;42227;6.376;-10.782;2022-11-09T07:58:29;27.48;;;12.02;;
56321;SDS011;42227;6.376;-10.782;2022-11-09T08:00:58;22.60;;;12.65;;
56321;SDS011;42227;6.376;-10.782;2022-11-09T08:03:26;21.63;;;12.80;;
56321;SDS011;42227;6.376;-10.782;2022-11-09T08:05:55;16.40;;;11.48;;
56321;SDS011;42227;6.376;-10.782;2022-11-09T08:08:23;23.25;;;11.15;;
56321;SDS011;42227;6.376;-10.782;2022-11-09T08:10:51;18.45;;;11.15;;
56321;SDS011;42227;6.376;-10.782;2022-11-09T08:13:19;23.88;;;11.77;;
56321;SDS011;42227;6.376;-10.782;2022-11-09T08:15:48;13.95;;;9.35;;
56321;SDS011;42227;6.376;-10.782;2022-11-09T08:18:17;20.52;;;10.38;;
56321;SDS011;42227;6.376;-10.782;2022-11-09T08:23:17;18.67;;;11.13;;
56321;SDS011;42227;6.376;-10.782;2022-11-09T08:25:46;15.82;;;10.75;;
56321;SDS011;42227;6.376;-10.782;2022-11-09T08:28:15;17.17;;;12.80;;
56321;SDS011;42227;6.376;-10.782;2022-11-09T08:30:45;17.13;;;12.23;;
56321;SDS011;42227;6.376;-10.782;2022-11-09T08:33:20;21.40;;;12.40;;
56321;SDS011;42227;6.376;-10.782;2022-11-09T08:35:49;19.13;;;11.05;;
56321;SDS011;42227;6.376;-10.782;2022-11-09T08:38:19;15.23;;;10.20;;
56321;SDS011;42227;6.376;-10.782;2022-11-09T08:40:48;13.48;;;8.27;;
56321;SDS011;42227;6.376;-10.782;2022-11-09T08:43:16;15.52;;;10.30;;
56321;SDS011;42227;6.376;-10.782;2022-11-09T08:45:44;16.35;;;8.98;;
56321;SDS011;42227;6.376;-10.782;2022-11-09T08:48:13;14.13;;;8.23;;
56321;SDS011;42227;6.376;-10.782;2022-11-09T08:50:42;10.13;;;6.03;;
56321;SDS011;42227;6.376;-10.782;2022-11-09T08:53:10;8.55;;;7.28;;
56321;SDS011;42227;6.376;-10.782;2022-11-09T08:55:39;9.90;;;6.15;;
56321;SDS011;42227;6.376;-10.782;2022-11-09T08:58:12;17.83;;;6.70;;
56321;SDS011;42227;6.376;-10.782;2022-11-09T09:00:41;10.63;;;6.40;;
56321;SDS011;42227;6.376;-10.782;2022-11-09T09:03:09;18.45;;;7.75;;
56321;SDS011;42227;6.376;-10.782;2022-11-09T09:05:38;9.40;;;6.05;;
56321;SDS011;42227;6.376;-10.782;2022-11-09T09:08:06;15.82;;;7.00;;
56321;SDS011;42227;6.376;-10.782;2022-11-09T09:10:34;16.05;;;7.32;;
56321;SDS011;42227;6.376;-10.782;2022-11-09T09:13:03;15.98;;;5.60;;
56321;SDS011;42227;6.376;-10.782;2022-11-09T09:15:31;11.20;;;6.28;;
56321;SDS011;42227;6.376;-10.782;2022-11-09T09:18:01;13.07;;;7.53;;
56321;SDS011;42227;6.376;-10.782;2022-11-09T09:20:29;17.70;;;7.63;;
56321;SDS011;42227;6.376;-10.782;2022-11-09T09:22:58;8.73;;;4.97;;
56321;SDS011;42227;6.376;-10.782;2022-11-09T09:25:27;13.55;;;7.03;;
56321;SDS011;42227;6.376;-10.782;2022-11-09T09:27:55;11.40;;;6.95;;
56321;SDS011;42227;6.376;-10.782;2022-11-09T09:30:24;15.77;;;7.97;;
56321;SDS011;42227;6.376;-10.782;2022-11-09T09:32:56;11.00;;;7.70;;
56321;SDS011;42227;6.376;-10.782;2022-11-09T09:35:27;19.52;;;8.05;;
56321;SDS011;42227;6.376;-10.782;2022-11-09T09:37:56;14.52;;;7.38;;
56321;SDS011;42227;6.376;-10.782;2022-11-09T09:40:49;12.05;;;8.32;;
56321;SDS011;42227;6.376;-10.782;2022-11-09T09:43:36;10.63;;;6.47;;
56321;SDS011;42227;6.376;-10.782;2022-11-09T09:46:18;22.55;;;7.18;;
56321;SDS011;42227;6.376;-10.782;2022-11-09T09:49:12;24.05;;;8.88;;
56321;SDS011;42227;6.376;-10.782;2022-11-09T09:51:53;14.77;;;8.50;;
56321;SDS011;42227;6.376;-10.782;2022-11-09T09:54:30;13.07;;;9.30;;
56321;SDS011;42227;6.376;-10.782;2022-11-09T09:57:03;15.85;;;8.25;;
56321;SDS011;42227;6.376;-10.782;2022-11-09T09:59:41;14.45;;;8.43;;
56321;SDS011;42227;6.376;-10.782;2022-11-09T10:02:24;16.27;;;8.20;;
56321;SDS011;42227;6.376;-10.782;2022-11-09T10:04:56;21.35;;;7.93;;
56321;SDS011;42227;6.376;-10.782;2022-11-09T10:19:01;12.88;;;7.07;;
56321;SDS011;42227;6.376;-10.782;2022-11-09T10:24:57;23.30;;;9.95;;
56321;SDS011;42227;6.376;-10.782;2022-11-09T10:27:57;24.58;;;11.00;;
56321;SDS011;42227;6.376;-10.782;2022-11-09T10:30:29;16.45;;;9.23;;
56321;SDS011;42227;6.376;-10.782;2022-11-09T10:36:15;13.82;;;5.38;;
56321;SDS011;42227;6.376;-10.782;2022-11-09T10:38:47;16.95;;;6.03;;
56321;SDS011;42227;6.376;-10.782;2022-11-09T10:41:39;11.27;;;6.03;;
56321;SDS011;42227;6.376;-10.782;2022-11-09T10:44:27;10.80;;;6.20;;
56321;SDS011;42227;6.376;-10.782;2022-11-09T10:47:15;9.88;;;5.72;;
56321;SDS011;42227;6.376;-10.782;2022-11-09T10:50:07;9.93;;;5.10;;
56321;SDS011;42227;6.376;-10.782;2022-11-09T10:53:16;11.55;;;7.72;;
56321;SDS011;42227;6.376;-10.782;2022-11-09T11:08:11;9.95;;;6.93;;
56321;SDS011;42227;6.376;-10.782;2022-11-09T11:17:23;11.88;;;6.28;;
56321;SDS011;42227;6.376;-10.782;2022-11-09T11:21:03;11.73;;;6.30;;
56321;SDS011;42227;6.376;-10.782;2022-11-09T11:23:23;18.08;;;5.35;;
56321;SDS011;42227;6.376;-10.782;2022-11-09T11:32:27;10.00;;;6.05;;
56321;SDS011;42227;6.376;-10.782;2022-11-09T11:35:22;10.18;;;6.20;;
56321;SDS011;42227;6.376;-10.782;2022-11-09T11:38:20;6.90;;;5.72;;
56321;SDS011;42227;6.376;-10.782;2022-11-09T12:06:22;13.68;;;7.75;;
56321;SDS011;42227;6.376;-10.782;2022-11-09T12:12:04;15.82;;;6.13;;
56321;SDS011;42227;6.376;-10.782;2022-11-09T12:21:35;12.40;;;6.03;;
56321;SDS011;42227;6.376;-10.782;2022-11-09T12:31:10;14.10;;;5.82;;
56321;SDS011;42227;6.376;-10.782;2022-11-09T12:34:24;11.50;;;4.63;;
56321;SDS011;42227;6.376;-10.782;2022-11-09T12:37:28;13.35;;;5.28;;
56321;SDS011;42227;6.376;-10.782;2022-11-09T12:40:28;21.77;;;8.30;;
56321;SDS011;42227;6.376;-10.782;2022-11-09T12:46:44;13.00;;;5.93;;
56321;SDS011;42227;6.376;-10.782;2022-11-09T12:49:35;8.73;;;5.57;;
56321;SDS011;42227;6.376;-10.782;2022-11-09T12:56:04;9.43;;;4.72;;
56321;SDS011;42227;6.376;-10.782;2022-11-09T12:58:43;10.23;;;5.28;;
56321;SDS011;42227;6.376;-10.782;2022-11-09T13:04:21;11.45;;;6.20;;
56321;SDS011;42227;6.376;-10.782;2022-11-09T13:10:02;9.88;;;5.35;;
56321;SDS011;42227;6.376;-10.782;2022-11-09T13:12:49;16.35;;;5.90;;
56321;SDS011;42227;6.376;-10.782;2022-11-09T13:19:09;19.40;;;5.22;;
56321;SDS011;42227;6.376;-10.782;2022-11-09T13:21:56;12.57;;;6.85;;
56321;SDS011;42227;6.376;-10.782;2022-11-09T13:24:50;13.80;;;5.82;;
56321;SDS011;42227;6.376;-10.782;2022-11-09T13:33:25;17.60;;;6.13;;
56321;SDS011;42227;6.376;-10.782;2022-11-09T13:36:14;10.63;;;5.70;;
56321;SDS011;42227;6.376;-10.782;2022-11-09T13:42:25;8.90;;;5.85;;
56321;SDS011;42227;6.376;-10.782;2022-11-09T13:45:25;14.50;;;5.43;;
56321;SDS011;42227;6.376;-10.782;2022-11-09T13:54:41;12.35;;;5.75;;
56321;SDS011;42227;6.376;-10.782;2022-11-09T13:57:28;9.25;;;5.80;;
56321;SDS011;42227;6.376;-10.782;2022-11-09T14:00:18;7.10;;;4.55;;
56321;SDS011;42227;6.376;-10.782;2022-11-09T14:03:23;14.63;;;4.75;;
56321;SDS011;42227;6.376;-10.782;2022-11-09T14:06:12;9.93;;;4.47;;
56321;SDS011;42227;6.376;-10.782;2022-11-09T14:09:00;9.18;;;5.47;;
56321;SDS011;42227;6.376;-10.782;2022-11-09T14:20:49;15.27;;;4.68;;
56321;SDS011;42227;6.376;-10.782;2022-11-09T14:23:41;10.43;;;5.10;;
56321;SDS011;42227;6.376;-10.782;2022-11-09T14:26:28;7.95;;;4.72;;
56321;SDS011;42227;6.376;-10.782;2022-11-09T14:29:22;6.20;;;4.60;;
56321;SDS011;42227;6.376;-10.782;2022-11-09T14:38:29;12.60;;;5.15;;
56321;SDS011;42227;6.376;-10.782;2022-11-09T14:41:19;16.50;;;4.75;;
56321;SDS011;42227;6.376;-10.782;2022-11-09T14:44:23;11.18;;;5.78;;
56321;SDS011;42227;6.376;-10.782;2022-11-09T14:47:18;14.93;;;5.03;;
56321;SDS011;42227;6.376;-10.782;2022-11-09T14:50:17;14.32;;;6.20;;
56321;SDS011;42227;6.376;-10.782;2022-11-09T14:53:16;16.10;;;5.32;;
56321;SDS011;42227;6.376;-10.782;2022-11-09T14:56:06;7.68;;;4.53;;
56321;SDS011;42227;6.376;-10.782;2022-11-09T14:58:55;10.88;;;5.25;;
56321;SDS011;42227;6.376;-10.782;2022-11-09T15:05:05;18.73;;;6.38;;
56321;SDS011;42227;6.376;-10.782;2022-11-09T15:07:52;9.48;;;4.95;;
56321;SDS011;42227;6.376;-10.782;2022-11-09T15:10:39;16.52;;;7.55;;
56321;SDS011;42227;6.376;-10.782;2022-11-09T15:13:27;14.55;;;10.02;;
56321;SDS011;42227;6.376;-10.782;2022-11-09T15:16:20;17.38;;;6.70;;
56321;SDS011;42227;6.376;-10.782;2022-11-09T15:22:55;14.15;;;6.88;;
56321;SDS011;42227;6.376;-10.782;2022-11-09T15:28:29;14.25;;;5.28;;
56321;SDS011;42227;6.376;-10.782;2022-11-09T15:33:18;8.18;;;4.90;;
56321;SDS011;42227;6.376;-10.782;2022-11-09T15:36:34;15.95;;;6.38;;
56321;SDS011;42227;6.376;-10.782;2022-11-09T15:39:26;15.98;;;8.85;;
56321;SDS011;42227;6.376;-10.782;2022-11-09T15:42:12;14.35;;;5.53;;
56321;SDS011;42227;6.376;-10.782;2022-11-09T15:44:59;12.73;;;6.15;;
56321;SDS011;42227;6.376;-10.782;2022-11-09T15:47:53;12.98;;;5.35;;
56321;SDS011;42227;6.376;-10.782;2022-11-09T15:50:40;8.05;;;4.13;;
56321;SDS011;42227;6.376;-10.782;2022-11-09T15:53:27;10.73;;;5.10;;
56321;SDS011;42227;6.376;-10.782;2022-11-09T15:56:15;10.25;;;4.97;;
56321;SDS011;42227;6.376;-10.782;2022-11-09T15:59:04;10.90;;;5.55;;
56321;SDS011;42227;6.376;-10.782;2022-11-09T16:01:52;9.15;;;4.82;;
56321;SDS011;42227;6.376;-10.782;2022-11-09T16:04:38;14.15;;;6.88;;
56321;SDS011;42227;6.376;-10.782;2022-11-09T16:07:25;10.82;;;5.30;;
56321;SDS011;42227;6.376;-10.782;2022-11-09T16:10:12;11.70;;;5.07;;
56321;SDS011;42227;6.376;-10.782;2022-11-09T16:12:59;9.52;;;5.95;;
56321;SDS011;42227;6.376;-10.782;2022-11-09T16:15:46;11.00;;;4.25;;
56321;SDS011;42227;6.376;-10.782;2022-11-09T16:18:32;7.47;;;4.47;;
56321;SDS011;42227;6.376;-10.782;2022-11-09T16:21:19;17.42;;;4.95;;
56321;SDS011;42227;6.376;-10.782;2022-11-09T16:24:06;12.95;;;6.70;;
56321;SDS011;42227;6.376;-10.782;2022-11-09T16:26:53;16.90;;;4.88;;
56321;SDS011;42227;6.376;-10.782;2022-11-09T16:29:40;13.30;;;5.05;;
56321;SDS011;42227;6.376;-10.782;2022-11-09T16:32:26;7.68;;;4.68;;
56321;SDS011;42227;6.376;-10.782;2022-11-09T16:35:13;13.15;;;4.65;;
56321;SDS011;42227;6.376;-10.782;2022-11-09T16:38:11;11.40;;;5.28;;
56321;SDS011;42227;6.376;-10.782;2022-11-09T16:40:58;14.05;;;5.97;;
56321;SDS011;42227;6.376;-10.782;2022-11-09T16:43:47;7.97;;;4.85;;
56321;SDS011;42227;6.376;-10.782;2022-11-09T16:46:36;7.55;;;4.85;;
56321;SDS011;42227;6.376;-10.782;2022-11-09T16:49:27;17.10;;;5.35;;
56321;SDS011;42227;6.376;-10.782;2022-11-09T16:52:14;16.70;;;6.00;;
56321;SDS011;42227;6.376;-10.782;2022-11-09T16:55:00;9.73;;;5.28;;
56321;SDS011;42227;6.376;-10.782;2022-11-09T16:57:46;17.48;;;5.22;;
56321;SDS011;42227;6.376;-10.782;2022-11-09T17:00:33;10.57;;;5.97;;
56321;SDS011;42227;6.376;-10.782;2022-11-09T17:03:39;16.05;;;6.68;;
56321;SDS011;42227;6.376;-10.782;2022-11-09T17:06:26;19.58;;;5.95;;
56321;SDS011;42227;6.376;-10.782;2022-11-09T17:09:13;8.95;;;5.72;;
56321;SDS011;42227;6.376;-10.782;2022-11-09T17:12:00;15.57;;;6.30;;
56321;SDS011;42227;6.376;-10.782;2022-11-09T17:14:46;16.02;;;6.43;;
56321;SDS011;42227;6.376;-10.782;2022-11-09T17:17:32;12.75;;;6.25;;
56321;SDS011;42227;6.376;-10.782;2022-11-09T17:20:19;14.80;;;6.60;;
56321;SDS011;42227;6.376;-10.782;2022-11-09T17:23:05;16.95;;;7.10;;
56321;SDS011;42227;6.376;-10.782;2022-11-09T17:25:59;25.77;;;7.30;;
56321;SDS011;42227;6.376;-10.782;2022-11-09T17:28:47;12.88;;;4.75;;
56321;SDS011;42227;6.376;-10.782;2022-11-09T17:31:33;11.45;;;6.70;;
56321;SDS011;42227;6.376;-10.782;2022-11-09T17:34:26;22.05;;;7.32;;
56321;SDS011;42227;6.376;-10.782;2022-11-09T17:37:13;15.25;;;6.60;;
56321;SDS011;42227;6.376;-10.782;2022-11-09T17:39:59;13.10;;;6.30;;
56321;SDS011;42227;6.376;-10.782;2022-11-09T17:42:46;10.95;;;6.28;;
56321;SDS011;42227;6.376;-10.782;2022-11-09T17:45:33;15.18;;;6.45;;
56321;SDS011;42227;6.376;-10.782;2022-11-09T17:48:20;10.15;;;4.35;;
56321;SDS011;42227;6.376;-10.782;2022-11-09T17:51:08;7.88;;;4.80;;
56321;SDS011;42227;6.376;-10.782;2022-11-09T17:53:55;19.73;;;6.65;;
56321;SDS011;42227;6.376;-10.782;2022-11-09T17:56:42;14.57;;;5.28;;